sensor_id;sensor_type;location;lat;lon;timestamp;P1;durP1;ratioP1;P2;durP2;ratioP2
2850;SDS011;1433;49.976;8.342;2023-06-24T00:01:53;4.73;;;4.30;;
2850;SDS011;1433;49.976;8.342;2023-06-24T00:04:19;4.90;;;4.50;;
2850;SDS011;1433;49.976;8.342;2023-06-24T00:06:46;5.57;;;4.90;;
2850;SDS011;1433;49.976;8.342;2023-06-24T00:09:12;7.00;;;5.43;;
2850;SDS011;1433;49.976;8.342;2023-06-24T00:11:39;7.23;;;4.80;;
2850;SDS011;1433;49.976;8.342;2023-06-24T00:14:06;6.10;;;4.50;;
2850;SDS011;1433;49.976;8.342;2023-06-24T00:16:32;4.90;;;4.40;;
2850;SDS011;1433;49.976;8.342;2023-06-24T00:18:59;4.40;;;4.00;;
2850;SDS011;1433;49.976;8.342;2023-06-24T00:21:28;6.50;;;4.97;;
2850;SDS011;1433;49.976;8.342;2023-06-24T00:23:56;5.50;;;4.73;;
2850;SDS011;1433;49.976;8.342;2023-06-24T00:26:41;6.23;;;4.37;;
2850;SDS011;1433;49.976;8.342;2023-06-24T00:29:07;5.20;;;4.80;;
2850;SDS011;1433;49.976;8.342;2023-06-24T00:31:34;6.97;;;5.30;;
2850;SDS011;1433;49.976;8.342;2023-06-24T00:34:00;4.33;;;3.97;;
2850;SDS011;1433;49.976;8.342;2023-06-24T00:36:26;6.00;;;4.00;;
2850;SDS011;1433;49.976;8.342;2023-06-24T00:38:52;4.57;;;4.13;;
2850;SDS011;1433;49.976;8.342;2023-06-24T00:41:19;6.63;;;5.13;;
2850;SDS011;1433;49.976;8.342;2023-06-24T00:43:46;5.37;;;4.90;;
2850;SDS011;1433;49.976;8.342;2023-06-24T00:46:13;5.83;;;5.33;;
2850;SDS011;1433;49.976;8.342;2023-06-24T00:48:41;6.17;;;5.57;;
2850;SDS011;1433;49.976;8.342;2023-06-24T00:51:08;5.50;;;4.97;;
2850;SDS011;1433;49.976;8.342;2023-06-24T00:53:34;8.10;;;6.73;;
2850;SDS011;1433;49.976;8.342;2023-06-24T00:56:00;5.33;;;4.73;;
2850;SDS011;1433;49.976;8.342;2023-06-24T00:58:28;5.43;;;5.03;;
2850;SDS011;1433;49.976;8.342;2023-06-24T01:00:57;8.73;;;5.40;;
2850;SDS011;1433;49.976;8.342;2023-06-24T01:03:24;4.73;;;4.33;;
2850;SDS011;1433;49.976;8.342;2023-06-24T01:05:51;6.73;;;5.70;;
2850;SDS011;1433;49.976;8.342;2023-06-24T01:08:18;5.53;;;5.00;;
2850;SDS011;1433;49.976;8.342;2023-06-24T01:10:46;5.90;;;5.30;;
2850;SDS011;1433;49.976;8.342;2023-06-24T01:13:12;5.40;;;4.90;;
2850;SDS011;1433;49.976;8.342;2023-06-24T01:15:38;6.83;;;6.13;;
2850;SDS011;1433;49.976;8.342;2023-06-24T01:18:07;5.67;;;5.00;;
2850;SDS011;1433;49.976;8.342;2023-06-24T01:31:31;7.17;;;4.70;;
2850;SDS011;1433;49.976;8.342;2023-06-24T01:36:38;5.77;;;5.20;;
2850;SDS011;1433;49.976;8.342;2023-06-24T01:39:08;6.00;;;5.30;;
2850;SDS011;1433;49.976;8.342;2023-06-24T01:41:40;5.77;;;5.27;;
2850;SDS011;1433;49.976;8.342;2023-06-24T01:44:05;5.73;;;4.40;;
2850;SDS011;1433;49.976;8.342;2023-06-24T01:46:35;4.97;;;4.57;;
2850;SDS011;1433;49.976;8.342;2023-06-24T01:49:04;5.00;;;4.60;;
2850;SDS011;1433;49.976;8.342;2023-06-24T01:51:32;5.50;;;5.00;;
2850;SDS011;1433;49.976;8.342;2023-06-24T01:54:02;5.97;;;4.67;;
2850;SDS011;1433;49.976;8.342;2023-06-24T01:56:32;6.50;;;5.17;;
2850;SDS011;1433;49.976;8.342;2023-06-24T01:59:00;5.47;;;4.97;;
2850;SDS011;1433;49.976;8.342;2023-06-24T02:01:30;5.63;;;4.80;;
2850;SDS011;1433;49.976;8.342;2023-06-24T02:03:58;4.53;;;4.12;;
2850;SDS011;1433;49.976;8.342;2023-06-24T02:06:26;5.17;;;4.77;;
2850;SDS011;1433;49.976;8.342;2023-06-24T02:08:57;5.63;;;5.13;;
2850;SDS011;1433;49.976;8.342;2023-06-24T02:11:24;5.83;;;5.33;;
2850;SDS011;1433;49.976;8.342;2023-06-24T02:13:55;6.13;;;5.53;;
2850;SDS011;1433;49.976;8.342;2023-06-24T02:16:24;5.70;;;5.20;;
2850;SDS011;1433;49.976;8.342;2023-06-24T02:18:53;5.70;;;5.20;;
2850;SDS011;1433;49.976;8.342;2023-06-24T02:21:21;5.57;;;4.93;;
2850;SDS011;1433;49.976;8.342;2023-06-24T02:23:49;7.33;;;6.73;;
2850;SDS011;1433;49.976;8.342;2023-06-24T02:26:17;6.77;;;6.00;;
2850;SDS011;1433;49.976;8.342;2023-06-24T02:28:44;5.97;;;5.50;;
2850;SDS011;1433;49.976;8.342;2023-06-24T02:31:12;7.53;;;5.40;;
2850;SDS011;1433;49.976;8.342;2023-06-24T02:33:39;4.87;;;4.43;;
2850;SDS011;1433;49.976;8.342;2023-06-24T02:36:05;5.90;;;5.30;;
2850;SDS011;1433;49.976;8.342;2023-06-24T02:38:32;6.10;;;5.33;;
2850;SDS011;1433;49.976;8.342;2023-06-24T02:40:58;5.93;;;5.33;;
2850;SDS011;1433;49.976;8.342;2023-06-24T02:43:24;5.53;;;5.07;;
2850;SDS011;1433;49.976;8.342;2023-06-24T02:45:50;6.03;;;5.43;;
2850;SDS011;1433;49.976;8.342;2023-06-24T02:48:19;5.17;;;4.67;;
2850;SDS011;1433;49.976;8.342;2023-06-24T02:50:46;7.00;;;6.30;;
2850;SDS011;1433;49.976;8.342;2023-06-24T02:53:14;7.80;;;6.60;;
2850;SDS011;1433;49.976;8.342;2023-06-24T02:55:42;5.90;;;5.40;;
2850;SDS011;1433;49.976;8.342;2023-06-24T02:58:09;7.57;;;6.87;;
2850;SDS011;1433;49.976;8.342;2023-06-24T03:00:43;7.60;;;6.70;;
2850;SDS011;1433;49.976;8.342;2023-06-24T03:03:09;7.60;;;6.90;;
2850;SDS011;1433;49.976;8.342;2023-06-24T03:05:38;7.07;;;6.37;;
2850;SDS011;1433;49.976;8.342;2023-06-24T03:08:05;9.47;;;7.10;;
2850;SDS011;1433;49.976;8.342;2023-06-24T03:10:32;7.87;;;6.47;;
2850;SDS011;1433;49.976;8.342;2023-06-24T03:13:01;6.93;;;6.23;;
2850;SDS011;1433;49.976;8.342;2023-06-24T03:15:28;6.80;;;6.20;;
2850;SDS011;1433;49.976;8.342;2023-06-24T03:17:57;7.67;;;6.97;;
2850;SDS011;1433;49.976;8.342;2023-06-24T03:20:23;8.47;;;7.67;;
2850;SDS011;1433;49.976;8.342;2023-06-24T03:22:49;8.33;;;7.53;;
2850;SDS011;1433;49.976;8.342;2023-06-24T03:25:18;7.30;;;6.03;;
2850;SDS011;1433;49.976;8.342;2023-06-24T03:27:53;6.80;;;5.90;;
2850;SDS011;1433;49.976;8.342;2023-06-24T03:30:19;8.47;;;6.47;;
2850;SDS011;1433;49.976;8.342;2023-06-24T03:32:46;7.30;;;6.60;;
2850;SDS011;1433;49.976;8.342;2023-06-24T03:35:14;6.57;;;5.97;;
2850;SDS011;1433;49.976;8.342;2023-06-24T03:37:41;7.17;;;6.47;;
2850;SDS011;1433;49.976;8.342;2023-06-24T03:40:08;7.23;;;5.93;;
2850;SDS011;1433;49.976;8.342;2023-06-24T03:42:35;7.00;;;6.37;;
2850;SDS011;1433;49.976;8.342;2023-06-24T03:45:02;6.97;;;5.90;;
2850;SDS011;1433;49.976;8.342;2023-06-24T03:47:29;8.23;;;6.37;;
2850;SDS011;1433;49.976;8.342;2023-06-24T03:49:55;7.63;;;5.90;;
2850;SDS011;1433;49.976;8.342;2023-06-24T03:52:22;7.67;;;6.30;;
2850;SDS011;1433;49.976;8.342;2023-06-24T03:54:49;7.07;;;5.57;;
2850;SDS011;1433;49.976;8.342;2023-06-24T03:57:15;8.17;;;7.17;;
2850;SDS011;1433;49.976;8.342;2023-06-24T03:59:41;5.80;;;5.30;;
2850;SDS011;1433;49.976;8.342;2023-06-24T04:02:08;7.67;;;6.87;;
2850;SDS011;1433;49.976;8.342;2023-06-24T04:04:35;6.73;;;5.83;;
2850;SDS011;1433;49.976;8.342;2023-06-24T04:07:03;7.07;;;6.37;;
2850;SDS011;1433;49.976;8.342;2023-06-24T04:09:33;6.50;;;5.90;;
2850;SDS011;1433;49.976;8.342;2023-06-24T04:11:59;6.80;;;5.97;;
2850;SDS011;1433;49.976;8.342;2023-06-24T04:14:28;6.17;;;5.57;;
2850;SDS011;1433;49.976;8.342;2023-06-24T04:16:54;8.03;;;6.70;;
2850;SDS011;1433;49.976;8.342;2023-06-24T04:19:22;9.47;;;6.30;;
2850;SDS011;1433;49.976;8.342;2023-06-24T04:21:49;7.40;;;6.70;;
2850;SDS011;1433;49.976;8.342;2023-06-24T04:24:16;6.83;;;6.20;;
2850;SDS011;1433;49.976;8.342;2023-06-24T04:26:42;7.40;;;6.60;;
2850;SDS011;1433;49.976;8.342;2023-06-24T04:29:08;6.90;;;6.20;;
2850;SDS011;1433;49.976;8.342;2023-06-24T04:31:34;6.90;;;6.20;;
2850;SDS011;1433;49.976;8.342;2023-06-24T04:34:00;20.87;;;7.90;;
2850;SDS011;1433;49.976;8.342;2023-06-24T04:36:26;7.10;;;6.37;;
2850;SDS011;1433;49.976;8.342;2023-06-24T04:38:53;7.20;;;5.77;;
2850;SDS011;1433;49.976;8.342;2023-06-24T04:41:19;6.33;;;5.70;;
2850;SDS011;1433;49.976;8.342;2023-06-24T04:43:45;7.90;;;5.90;;
2850;SDS011;1433;49.976;8.342;2023-06-24T04:46:11;7.63;;;6.83;;
2850;SDS011;1433;49.976;8.342;2023-06-24T04:48:37;7.33;;;6.57;;
2850;SDS011;1433;49.976;8.342;2023-06-24T04:51:03;6.70;;;6.00;;
2850;SDS011;1433;49.976;8.342;2023-06-24T04:53:30;7.07;;;6.37;;
2850;SDS011;1433;49.976;8.342;2023-06-24T04:55:56;8.37;;;7.50;;
2850;SDS011;1433;49.976;8.342;2023-06-24T04:58:22;7.27;;;6.43;;
2850;SDS011;1433;49.976;8.342;2023-06-24T05:00:48;7.30;;;6.50;;
2850;SDS011;1433;49.976;8.342;2023-06-24T05:03:14;6.80;;;5.63;;
2850;SDS011;1433;49.976;8.342;2023-06-24T05:05:40;8.20;;;7.40;;
2850;SDS011;1433;49.976;8.342;2023-06-24T05:08:07;6.40;;;5.83;;
2850;SDS011;1433;49.976;8.342;2023-06-24T05:10:33;5.80;;;5.20;;
2850;SDS011;1433;49.976;8.342;2023-06-24T05:12:59;6.70;;;5.97;;
2850;SDS011;1433;49.976;8.342;2023-06-24T05:15:25;7.33;;;6.53;;
2850;SDS011;1433;49.976;8.342;2023-06-24T05:17:51;6.70;;;6.00;;
2850;SDS011;1433;49.976;8.342;2023-06-24T05:20:18;7.03;;;6.40;;
2850;SDS011;1433;49.976;8.342;2023-06-24T05:22:44;6.77;;;6.07;;
2850;SDS011;1433;49.976;8.342;2023-06-24T05:25:10;7.07;;;5.83;;
2850;SDS011;1433;49.976;8.342;2023-06-24T05:27:36;7.20;;;5.63;;
2850;SDS011;1433;49.976;8.342;2023-06-24T05:30:02;7.67;;;6.93;;
2850;SDS011;1433;49.976;8.342;2023-06-24T05:32:29;9.43;;;7.20;;
2850;SDS011;1433;49.976;8.342;2023-06-24T05:34:55;6.63;;;5.80;;
2850;SDS011;1433;49.976;8.342;2023-06-24T05:37:21;5.90;;;5.40;;
2850;SDS011;1433;49.976;8.342;2023-06-24T05:39:47;6.70;;;5.90;;
2850;SDS011;1433;49.976;8.342;2023-06-24T05:42:14;6.10;;;4.90;;
2850;SDS011;1433;49.976;8.342;2023-06-24T05:44:40;6.50;;;5.63;;
2850;SDS011;1433;49.976;8.342;2023-06-24T05:47:06;5.47;;;4.97;;
2850;SDS011;1433;49.976;8.342;2023-06-24T05:49:32;6.70;;;5.80;;
2850;SDS011;1433;49.976;8.342;2023-06-24T05:51:59;6.63;;;5.93;;
2850;SDS011;1433;49.976;8.342;2023-06-24T05:54:25;6.80;;;5.30;;
2850;SDS011;1433;49.976;8.342;2023-06-24T05:56:51;9.10;;;5.63;;
2850;SDS011;1433;49.976;8.342;2023-06-24T05:59:17;6.60;;;5.90;;
2850;SDS011;1433;49.976;8.342;2023-06-24T06:01:44;5.70;;;5.20;;
2850;SDS011;1433;49.976;8.342;2023-06-24T06:04:10;7.10;;;6.50;;
2850;SDS011;1433;49.976;8.342;2023-06-24T06:06:36;6.23;;;5.47;;
2850;SDS011;1433;49.976;8.342;2023-06-24T06:09:02;10.20;;;6.20;;
2850;SDS011;1433;49.976;8.342;2023-06-24T06:11:29;5.90;;;4.83;;
2850;SDS011;1433;49.976;8.342;2023-06-24T06:13:57;6.63;;;5.93;;
2850;SDS011;1433;49.976;8.342;2023-06-24T06:16:23;6.93;;;6.23;;
2850;SDS011;1433;49.976;8.342;2023-06-24T06:18:49;10.23;;;5.20;;
2850;SDS011;1433;49.976;8.342;2023-06-24T06:21:15;6.87;;;4.80;;
2850;SDS011;1433;49.976;8.342;2023-06-24T06:23:49;7.73;;;5.77;;
2850;SDS011;1433;49.976;8.342;2023-06-24T06:26:15;8.03;;;5.00;;
2850;SDS011;1433;49.976;8.342;2023-06-24T06:28:41;7.50;;;6.10;;
2850;SDS011;1433;49.976;8.342;2023-06-24T06:31:08;6.30;;;5.70;;
2850;SDS011;1433;49.976;8.342;2023-06-24T06:33:34;6.50;;;5.57;;
2850;SDS011;1433;49.976;8.342;2023-06-24T06:36:01;8.43;;;5.23;;
2850;SDS011;1433;49.976;8.342;2023-06-24T06:38:27;13.23;;;6.73;;
2850;SDS011;1433;49.976;8.342;2023-06-24T06:40:53;8.30;;;5.83;;
2850;SDS011;1433;49.976;8.342;2023-06-24T06:43:20;7.93;;;5.73;;
2850;SDS011;1433;49.976;8.342;2023-06-24T06:45:47;6.60;;;5.90;;
2850;SDS011;1433;49.976;8.342;2023-06-24T06:48:13;5.97;;;4.97;;
2850;SDS011;1433;49.976;8.342;2023-06-24T06:50:39;10.57;;;5.93;;
2850;SDS011;1433;49.976;8.342;2023-06-24T06:53:05;5.63;;;5.00;;
2850;SDS011;1433;49.976;8.342;2023-06-24T06:55:31;7.67;;;5.37;;
2850;SDS011;1433;49.976;8.342;2023-06-24T06:57:58;5.67;;;4.80;;
2850;SDS011;1433;49.976;8.342;2023-06-24T07:00:24;6.50;;;5.03;;
2850;SDS011;1433;49.976;8.342;2023-06-24T07:02:50;6.87;;;5.77;;
2850;SDS011;1433;49.976;8.342;2023-06-24T07:05:16;7.03;;;6.20;;
2850;SDS011;1433;49.976;8.342;2023-06-24T07:07:44;7.17;;;5.53;;
2850;SDS011;1433;49.976;8.342;2023-06-24T07:10:20;7.27;;;6.27;;
2850;SDS011;1433;49.976;8.342;2023-06-24T07:12:46;6.13;;;5.57;;
2850;SDS011;1433;49.976;8.342;2023-06-24T07:15:12;7.20;;;5.00;;
2850;SDS011;1433;49.976;8.342;2023-06-24T07:17:39;6.10;;;5.50;;
2850;SDS011;1433;49.976;8.342;2023-06-24T07:20:06;10.63;;;7.03;;
2850;SDS011;1433;49.976;8.342;2023-06-24T07:22:33;8.30;;;7.40;;
2850;SDS011;1433;49.976;8.342;2023-06-24T07:24:59;8.73;;;7.20;;
2850;SDS011;1433;49.976;8.342;2023-06-24T07:27:26;6.93;;;5.90;;
2850;SDS011;1433;49.976;8.342;2023-06-24T07:29:52;6.87;;;6.13;;
2850;SDS011;1433;49.976;8.342;2023-06-24T07:32:18;8.40;;;6.90;;
2850;SDS011;1433;49.976;8.342;2023-06-24T07:34:44;6.73;;;6.07;;
2850;SDS011;1433;49.976;8.342;2023-06-24T07:37:10;7.60;;;5.90;;
2850;SDS011;1433;49.976;8.342;2023-06-24T07:39:36;8.70;;;6.00;;
2850;SDS011;1433;49.976;8.342;2023-06-24T07:42:03;8.13;;;6.23;;
2850;SDS011;1433;49.976;8.342;2023-06-24T07:44:29;7.70;;;6.93;;
2850;SDS011;1433;49.976;8.342;2023-06-24T07:46:56;8.17;;;7.17;;
2850;SDS011;1433;49.976;8.342;2023-06-24T07:49:22;7.60;;;6.57;;
2850;SDS011;1433;49.976;8.342;2023-06-24T07:51:48;6.60;;;5.27;;
2850;SDS011;1433;49.976;8.342;2023-06-24T07:54:21;7.50;;;6.70;;
2850;SDS011;1433;49.976;8.342;2023-06-24T07:56:48;9.63;;;6.40;;
2850;SDS011;1433;49.976;8.342;2023-06-24T07:59:14;5.80;;;5.30;;
2850;SDS011;1433;49.976;8.342;2023-06-24T08:01:40;8.43;;;6.57;;
2850;SDS011;1433;49.976;8.342;2023-06-24T08:04:06;6.47;;;5.00;;
2850;SDS011;1433;49.976;8.342;2023-06-24T08:06:32;8.03;;;5.97;;
2850;SDS011;1433;49.976;8.342;2023-06-24T08:08:58;6.50;;;5.30;;
2850;SDS011;1433;49.976;8.342;2023-06-24T08:11:25;7.37;;;4.90;;
2850;SDS011;1433;49.976;8.342;2023-06-24T08:13:52;4.70;;;4.30;;
2850;SDS011;1433;49.976;8.342;2023-06-24T08:16:19;7.90;;;3.90;;
2850;SDS011;1433;49.976;8.342;2023-06-24T08:18:46;5.27;;;4.70;;
2850;SDS011;1433;49.976;8.342;2023-06-24T08:21:12;5.97;;;5.00;;
2850;SDS011;1433;49.976;8.342;2023-06-24T08:23:38;7.73;;;5.00;;
2850;SDS011;1433;49.976;8.342;2023-06-24T08:26:05;5.83;;;5.33;;
2850;SDS011;1433;49.976;8.342;2023-06-24T08:28:31;6.60;;;5.20;;
2850;SDS011;1433;49.976;8.342;2023-06-24T08:30:57;5.40;;;4.87;;
2850;SDS011;1433;49.976;8.342;2023-06-24T08:33:23;4.83;;;4.40;;
2850;SDS011;1433;49.976;8.342;2023-06-24T08:35:49;5.20;;;4.10;;
2850;SDS011;1433;49.976;8.342;2023-06-24T08:38:16;4.27;;;3.87;;
2850;SDS011;1433;49.976;8.342;2023-06-24T08:40:42;6.27;;;5.00;;
2850;SDS011;1433;49.976;8.342;2023-06-24T08:43:11;5.23;;;4.73;;
2850;SDS011;1433;49.976;8.342;2023-06-24T08:45:37;6.80;;;4.90;;
2850;SDS011;1433;49.976;8.342;2023-06-24T08:48:04;5.50;;;4.90;;
2850;SDS011;1433;49.976;8.342;2023-06-24T08:50:33;7.70;;;5.67;;
2850;SDS011;1433;49.976;8.342;2023-06-24T08:53:06;5.63;;;4.93;;
2850;SDS011;1433;49.976;8.342;2023-06-24T08:55:36;4.85;;;4.30;;
2850;SDS011;1433;49.976;8.342;2023-06-24T08:58:04;5.00;;;4.50;;
2850;SDS011;1433;49.976;8.342;2023-06-24T09:00:30;4.53;;;4.13;;
2850;SDS011;1433;49.976;8.342;2023-06-24T09:02:57;5.53;;;4.70;;
2850;SDS011;1433;49.976;8.342;2023-06-24T09:05:24;5.50;;;4.37;;
2850;SDS011;1433;49.976;8.342;2023-06-24T09:07:50;4.23;;;3.83;;
2850;SDS011;1433;49.976;8.342;2023-06-24T09:10:36;4.40;;;3.00;;
2850;SDS011;1433;49.976;8.342;2023-06-24T09:13:04;3.87;;;3.47;;
2850;SDS011;1433;49.976;8.342;2023-06-24T09:15:32;3.70;;;3.40;;
2850;SDS011;1433;49.976;8.342;2023-06-24T09:17:59;5.77;;;3.90;;
2850;SDS011;1433;49.976;8.342;2023-06-24T09:20:27;4.40;;;3.00;;
2850;SDS011;1433;49.976;8.342;2023-06-24T09:22:59;3.03;;;2.80;;
2850;SDS011;1433;49.976;8.342;2023-06-24T09:25:27;4.37;;;3.97;;
2850;SDS011;1433;49.976;8.342;2023-06-24T09:27:53;3.77;;;3.30;;
2850;SDS011;1433;49.976;8.342;2023-06-24T09:30:22;3.50;;;3.07;;
2850;SDS011;1433;49.976;8.342;2023-06-24T09:32:49;6.70;;;3.37;;
2850;SDS011;1433;49.976;8.342;2023-06-24T09:35:22;3.22;;;2.92;;
2850;SDS011;1433;49.976;8.342;2023-06-24T09:37:50;7.00;;;3.50;;
2850;SDS011;1433;49.976;8.342;2023-06-24T09:40:21;5.00;;;4.50;;
2850;SDS011;1433;49.976;8.342;2023-06-24T09:42:49;5.20;;;4.40;;
2850;SDS011;1433;49.976;8.342;2023-06-24T09:45:26;6.70;;;4.47;;
2850;SDS011;1433;49.976;8.342;2023-06-24T09:47:52;5.73;;;5.07;;
2850;SDS011;1433;49.976;8.342;2023-06-24T09:50:19;4.95;;;4.45;;
2850;SDS011;1433;49.976;8.342;2023-06-24T09:52:45;4.87;;;4.03;;
2850;SDS011;1433;49.976;8.342;2023-06-24T09:55:12;5.40;;;4.57;;
2850;SDS011;1433;49.976;8.342;2023-06-24T09:57:41;5.50;;;3.63;;
2850;SDS011;1433;49.976;8.342;2023-06-24T10:00:10;3.83;;;3.40;;
2850;SDS011;1433;49.976;8.342;2023-06-24T10:02:37;5.30;;;3.80;;
2850;SDS011;1433;49.976;8.342;2023-06-24T10:05:04;5.93;;;5.00;;
2850;SDS011;1433;49.976;8.342;2023-06-24T10:07:30;4.73;;;4.10;;
2850;SDS011;1433;49.976;8.342;2023-06-24T10:09:58;3.77;;;3.33;;
2850;SDS011;1433;49.976;8.342;2023-06-24T10:12:24;4.57;;;4.07;;
2850;SDS011;1433;49.976;8.342;2023-06-24T10:14:52;2.90;;;2.70;;
2850;SDS011;1433;49.976;8.342;2023-06-24T10:17:19;4.30;;;3.27;;
2850;SDS011;1433;49.976;8.342;2023-06-24T10:19:45;3.53;;;3.23;;
2850;SDS011;1433;49.976;8.342;2023-06-24T10:22:11;3.63;;;3.27;;
2850;SDS011;1433;49.976;8.342;2023-06-24T10:24:38;3.83;;;3.13;;
2850;SDS011;1433;49.976;8.342;2023-06-24T10:27:08;3.90;;;3.50;;
2850;SDS011;1433;49.976;8.342;2023-06-24T10:29:37;4.80;;;3.43;;
2850;SDS011;1433;49.976;8.342;2023-06-24T10:32:07;4.37;;;3.30;;
2850;SDS011;1433;49.976;8.342;2023-06-24T10:44:52;5.30;;;3.70;;
2850;SDS011;1433;49.976;8.342;2023-06-24T10:47:19;3.30;;;2.93;;
2850;SDS011;1433;49.976;8.342;2023-06-24T10:49:45;4.07;;;3.67;;
2850;SDS011;1433;49.976;8.342;2023-06-24T10:52:12;5.97;;;2.80;;
2850;SDS011;1433;49.976;8.342;2023-06-24T10:54:39;3.03;;;2.60;;
2850;SDS011;1433;49.976;8.342;2023-06-24T10:57:06;4.03;;;3.60;;
2850;SDS011;1433;49.976;8.342;2023-06-24T10:59:34;3.80;;;3.50;;
2850;SDS011;1433;49.976;8.342;2023-06-24T11:02:01;4.70;;;4.30;;
2850;SDS011;1433;49.976;8.342;2023-06-24T11:04:27;3.33;;;3.13;;
2850;SDS011;1433;49.976;8.342;2023-06-24T11:09:47;4.63;;;2.93;;
2850;SDS011;1433;49.976;8.342;2023-06-24T11:12:16;2.60;;;2.40;;
2850;SDS011;1433;49.976;8.342;2023-06-24T11:14:42;4.10;;;3.80;;
2850;SDS011;1433;49.976;8.342;2023-06-24T11:17:09;3.80;;;3.47;;
2850;SDS011;1433;49.976;8.342;2023-06-24T11:19:35;3.00;;;2.80;;
2850;SDS011;1433;49.976;8.342;2023-06-24T11:22:03;3.47;;;3.17;;
2850;SDS011;1433;49.976;8.342;2023-06-24T11:24:30;3.97;;;3.50;;
2850;SDS011;1433;49.976;8.342;2023-06-24T11:26:57;3.63;;;3.30;;
2850;SDS011;1433;49.976;8.342;2023-06-24T11:29:23;3.77;;;3.50;;
2850;SDS011;1433;49.976;8.342;2023-06-24T11:31:50;3.50;;;2.70;;
2850;SDS011;1433;49.976;8.342;2023-06-24T11:34:16;3.90;;;3.60;;
2850;SDS011;1433;49.976;8.342;2023-06-24T11:36:43;3.53;;;3.23;;
2850;SDS011;1433;49.976;8.342;2023-06-24T11:39:19;4.20;;;3.80;;
2850;SDS011;1433;49.976;8.342;2023-06-24T11:41:48;3.33;;;2.77;;
2850;SDS011;1433;49.976;8.342;2023-06-24T11:44:14;3.43;;;3.13;;
2850;SDS011;1433;49.976;8.342;2023-06-24T11:46:43;3.50;;;2.83;;
2850;SDS011;1433;49.976;8.342;2023-06-24T11:49:10;3.23;;;2.93;;
2850;SDS011;1433;49.976;8.342;2023-06-24T11:51:36;3.30;;;2.80;;
2850;SDS011;1433;49.976;8.342;2023-06-24T11:54:04;3.37;;;3.07;;
2850;SDS011;1433;49.976;8.342;2023-06-24T11:56:38;3.40;;;3.10;;
2850;SDS011;1433;49.976;8.342;2023-06-24T11:59:07;2.63;;;2.43;;
2850;SDS011;1433;49.976;8.342;2023-06-24T12:01:35;3.70;;;2.57;;
2850;SDS011;1433;49.976;8.342;2023-06-24T12:04:11;3.40;;;3.10;;
2850;SDS011;1433;49.976;8.342;2023-06-24T12:06:40;3.07;;;2.77;;
2850;SDS011;1433;49.976;8.342;2023-06-24T12:09:07;3.60;;;3.13;;
2850;SDS011;1433;49.976;8.342;2023-06-24T12:11:34;2.90;;;2.70;;
2850;SDS011;1433;49.976;8.342;2023-06-24T12:14:01;2.90;;;2.70;;
2850;SDS011;1433;49.976;8.342;2023-06-24T12:16:28;3.10;;;2.90;;
2850;SDS011;1433;49.976;8.342;2023-06-24T12:18:57;2.90;;;2.60;;
2850;SDS011;1433;49.976;8.342;2023-06-24T12:21:23;2.97;;;2.67;;
2850;SDS011;1433;49.976;8.342;2023-06-24T12:23:49;3.10;;;2.90;;
2850;SDS011;1433;49.976;8.342;2023-06-24T12:26:15;3.00;;;2.77;;
2850;SDS011;1433;49.976;8.342;2023-06-24T12:28:42;3.60;;;3.30;;
2850;SDS011;1433;49.976;8.342;2023-06-24T12:31:08;3.43;;;3.13;;
2850;SDS011;1433;49.976;8.342;2023-06-24T12:33:34;3.20;;;2.90;;
2850;SDS011;1433;49.976;8.342;2023-06-24T12:36:00;3.00;;;2.60;;
2850;SDS011;1433;49.976;8.342;2023-06-24T12:38:26;5.73;;;3.33;;
2850;SDS011;1433;49.976;8.342;2023-06-24T12:40:53;2.70;;;2.50;;
2850;SDS011;1433;49.976;8.342;2023-06-24T12:43:19;13.70;;;3.00;;
2850;SDS011;1433;49.976;8.342;2023-06-24T12:45:45;2.80;;;2.60;;
2850;SDS011;1433;49.976;8.342;2023-06-24T12:48:12;3.57;;;3.30;;
2850;SDS011;1433;49.976;8.342;2023-06-24T12:50:39;3.67;;;3.33;;
2850;SDS011;1433;49.976;8.342;2023-06-24T12:53:06;2.63;;;2.43;;
2850;SDS011;1433;49.976;8.342;2023-06-24T12:55:32;4.07;;;3.40;;
2850;SDS011;1433;49.976;8.342;2023-06-24T12:57:58;3.30;;;3.00;;
2850;SDS011;1433;49.976;8.342;2023-06-24T13:00:25;4.00;;;3.60;;
2850;SDS011;1433;49.976;8.342;2023-06-24T13:02:51;3.97;;;3.67;;
2850;SDS011;1433;49.976;8.342;2023-06-24T13:05:17;3.47;;;3.20;;
2850;SDS011;1433;49.976;8.342;2023-06-24T13:07:44;3.20;;;2.90;;
2850;SDS011;1433;49.976;8.342;2023-06-24T13:10:10;3.83;;;2.63;;
2850;SDS011;1433;49.976;8.342;2023-06-24T13:12:36;4.10;;;3.10;;
2850;SDS011;1433;49.976;8.342;2023-06-24T13:15:03;3.40;;;3.10;;
2850;SDS011;1433;49.976;8.342;2023-06-24T13:17:31;5.03;;;3.07;;
2850;SDS011;1433;49.976;8.342;2023-06-24T13:19:58;3.63;;;3.30;;
2850;SDS011;1433;49.976;8.342;2023-06-24T13:22:24;3.60;;;3.30;;
2850;SDS011;1433;49.976;8.342;2023-06-24T13:24:51;3.10;;;2.90;;
2850;SDS011;1433;49.976;8.342;2023-06-24T13:27:17;3.53;;;3.03;;
2850;SDS011;1433;49.976;8.342;2023-06-24T13:29:43;2.80;;;2.60;;
2850;SDS011;1433;49.976;8.342;2023-06-24T13:32:10;3.30;;;3.03;;
2850;SDS011;1433;49.976;8.342;2023-06-24T13:34:36;3.53;;;3.23;;
2850;SDS011;1433;49.976;8.342;2023-06-24T13:37:02;5.30;;;4.80;;
2850;SDS011;1433;49.976;8.342;2023-06-24T13:39:29;8.17;;;6.60;;
2850;SDS011;1433;49.976;8.342;2023-06-24T13:41:56;3.53;;;3.20;;
2850;SDS011;1433;49.976;8.342;2023-06-24T13:44:22;3.17;;;2.97;;
2850;SDS011;1433;49.976;8.342;2023-06-24T13:46:49;3.53;;;3.23;;
2850;SDS011;1433;49.976;8.342;2023-06-24T13:49:18;3.53;;;3.20;;
2850;SDS011;1433;49.976;8.342;2023-06-24T13:51:44;3.90;;;3.60;;
2850;SDS011;1433;49.976;8.342;2023-06-24T13:54:11;2.90;;;2.70;;
2850;SDS011;1433;49.976;8.342;2023-06-24T13:56:37;3.10;;;2.90;;
2850;SDS011;1433;49.976;8.342;2023-06-24T13:59:04;3.43;;;2.60;;
2850;SDS011;1433;49.976;8.342;2023-06-24T14:01:30;3.10;;;2.80;;
2850;SDS011;1433;49.976;8.342;2023-06-24T14:03:57;3.00;;;2.80;;
2850;SDS011;1433;49.976;8.342;2023-06-24T14:06:23;3.20;;;3.00;;
2850;SDS011;1433;49.976;8.342;2023-06-24T14:08:50;3.50;;;2.47;;
2850;SDS011;1433;49.976;8.342;2023-06-24T14:11:17;4.20;;;3.50;;
2850;SDS011;1433;49.976;8.342;2023-06-24T14:13:43;2.90;;;2.70;;
2850;SDS011;1433;49.976;8.342;2023-06-24T14:16:10;5.90;;;2.90;;
2850;SDS011;1433;49.976;8.342;2023-06-24T14:18:37;4.13;;;3.07;;
2850;SDS011;1433;49.976;8.342;2023-06-24T14:21:05;3.43;;;3.23;;
2850;SDS011;1433;49.976;8.342;2023-06-24T14:23:33;2.57;;;2.37;;
2850;SDS011;1433;49.976;8.342;2023-06-24T14:26:00;2.77;;;2.47;;
2850;SDS011;1433;49.976;8.342;2023-06-24T14:28:27;3.40;;;3.17;;
2850;SDS011;1433;49.976;8.342;2023-06-24T14:30:53;3.60;;;3.30;;
2850;SDS011;1433;49.976;8.342;2023-06-24T14:33:19;3.60;;;3.30;;
2850;SDS011;1433;49.976;8.342;2023-06-24T14:35:45;3.87;;;3.57;;
2850;SDS011;1433;49.976;8.342;2023-06-24T14:38:12;3.73;;;3.43;;
2850;SDS011;1433;49.976;8.342;2023-06-24T14:40:38;3.40;;;3.10;;
2850;SDS011;1433;49.976;8.342;2023-06-24T14:43:04;3.20;;;2.90;;
2850;SDS011;1433;49.976;8.342;2023-06-24T14:45:30;2.97;;;2.77;;
2850;SDS011;1433;49.976;8.342;2023-06-24T14:47:57;3.50;;;3.20;;
2850;SDS011;1433;49.976;8.342;2023-06-24T14:50:23;3.67;;;3.30;;
2850;SDS011;1433;49.976;8.342;2023-06-24T14:52:49;2.93;;;2.73;;
2850;SDS011;1433;49.976;8.342;2023-06-24T14:55:16;4.28;;;3.87;;
2850;SDS011;1433;49.976;8.342;2023-06-24T14:57:42;3.45;;;3.17;;
2850;SDS011;1433;49.976;8.342;2023-06-24T15:00:08;3.83;;;3.52;;
2850;SDS011;1433;49.976;8.342;2023-06-24T15:02:35;3.30;;;3.10;;
2850;SDS011;1433;49.976;8.342;2023-06-24T15:05:01;3.83;;;3.52;;
2850;SDS011;1433;49.976;8.342;2023-06-24T15:07:28;3.50;;;2.70;;
2850;SDS011;1433;49.976;8.342;2023-06-24T15:09:55;3.25;;;2.95;;
2850;SDS011;1433;49.976;8.342;2023-06-24T15:12:21;3.98;;;3.72;;
2850;SDS011;1433;49.976;8.342;2023-06-24T15:14:47;3.23;;;3.00;;
2850;SDS011;1433;49.976;8.342;2023-06-24T15:17:14;3.95;;;3.20;;
2850;SDS011;1433;49.976;8.342;2023-06-24T15:19:41;3.23;;;3.03;;
2850;SDS011;1433;49.976;8.342;2023-06-24T15:22:07;8.93;;;4.20;;
2850;SDS011;1433;49.976;8.342;2023-06-24T15:24:33;3.40;;;3.10;;
2850;SDS011;1433;49.976;8.342;2023-06-24T15:26:59;3.73;;;3.43;;
2850;SDS011;1433;49.976;8.342;2023-06-24T15:29:26;2.98;;;2.77;;
2850;SDS011;1433;49.976;8.342;2023-06-24T15:31:52;3.65;;;3.35;;
2850;SDS011;1433;49.976;8.342;2023-06-24T15:34:18;4.55;;;4.17;;
2850;SDS011;1433;49.976;8.342;2023-06-24T15:36:45;4.25;;;3.92;;
2850;SDS011;1433;49.976;8.342;2023-06-24T15:39:11;3.55;;;3.25;;
2850;SDS011;1433;49.976;8.342;2023-06-24T15:41:37;3.45;;;3.20;;